ウィレムスタッド の空港の天気 - METARとTAF

キュラソー/ハト国際空港 ( TNCC / CUR ) - ウィレムスタッド (キュラソー島)
飛行場実況気象(Metar)
観測時間11/24 13:00 AST (11/24 17:00 UTC)
風向・風速東 5m/s
視程10km以上
天気現象弱いしゅう雨
少しの雲 雲底高度 550m
全天の4割程度の雲 雲底高度 730m
気温30℃
湿度70%
気圧1012hPa
METARTNCC 241700Z 09010KT 9999 -SHRA FEW018TCU SCT024 30/24 Q1012 NOSIG
過去の天気等 Google飛行場航空写真 Wunderground天気予報

過去48時間のMETAR

飛行場予報(TAF)
発表時間: 11/24 13:15 AST (11/24 17:15 UTC)
予報対象時間: 24日14時 AST ~ 25日14時 AST
風向・風速東 7m/s
視程10km以上
全天の4割程度の雲 雲底高度 760m
TAF TNCC 241715Z 2418/2518 10014KT 9999 SCT025